Surface/Precipitation History
07/24/2016 18:40  to  7/25/2016 18:40
Change End Date:
Date/Time
(MDT)
Sf
Temp Chem Water Layer Surface Precipitation
Sfc Pvt Sub Frz Factor Pct Dpth DpthThk IcePct Cond Salin FI Type Intens Accum Rate
07/25/2016 18:31 Dry 91.0F - 80F - - - - - - 35 mhos 2082 - None None - -
07/25/2016 18:25 Dry 92.3F - 80F - - - - - - 35 mhos 2048 - None None - -
07/25/2016 18:21 Dry 92.7F - 80F - - - - - - 35 mhos 2040 - None None - -
07/25/2016 18:11 Dry 93.2F - 80F - - - - - - 35 mhos 2019 - None None - -
07/25/2016 18:10 Dry 93.2F - 80F - - - - - - 35 mhos 2019 - None None - -
07/25/2016 18:01 Dry 94.1F - 80F - - - - - - 35 mhos 2005 - None None - -
07/25/2016 17:55 Dry 94.5F - 80F - - - - - - 35 mhos 1986 - None None - -
07/25/2016 17:51 Dry 94.5F - 80F - - - - - - 35 mhos 1986 - None None - -
07/25/2016 17:41 Dry 95.0F - 80F - - - - - - 35 mhos 1976 - None None - -
07/25/2016 17:40 Dry 95.0F - 80F - - - - - - 35 mhos 1976 - None None - -
07/25/2016 17:31 Dry 95.7F - 80F - - - - - - 34 mhos 1951 - None None - -
07/25/2016 17:25 Dry 96.6F - 80F - - - - - - 34 mhos 1927 - None None - -
07/25/2016 17:21 Dry 96.8F - 80F - - - - - - 34 mhos 1923 - None None - -
07/25/2016 17:10 Dry 98.8F - 79F - - - - - - 34 mhos 1871 - None None - -
07/25/2016 17:10 Dry 98.8F - 79F - - - - - - 34 mhos 1871 - None None - -
Date/Time
(MDT)
Sf
Temp Chem Water Layer Surface Precipitation
Sfc Pvt Sub Frz Factor Pct Dpth DpthThk IcePct Cond Salin FI Type Intens Accum Rate
07/25/2016 17:00 Dry 103.1F - 79F - - - - - - 33 mhos 1775 - None None - -
07/25/2016 16:55 Dry 105.3F - 79F - - - - - - 33 mhos 1749 - None None - -
07/25/2016 16:50 Dry 101.1F - 79F - - - - - - 33 mhos 1813 - None None - -
07/25/2016 16:40 Dry 104.0F - 79F - - - - - - 33 mhos 1754 - None None - -
07/25/2016 16:40 Dry 104.0F - 79F - - - - - - 33 mhos 1754 - None None - -
07/25/2016 16:30 Dry 104.4F - 79F - - - - - - 33 mhos 1737 - None None - -
07/25/2016 16:25 Dry 105.8F - 79F - - - - - - 33 mhos 1698 - None None - -
07/25/2016 16:20 Dry 107.8F - 79F - - - - - - 32 mhos 1653 - None None - -
07/25/2016 16:10 Dry 109.0F - 78F - - - - - - 32 mhos 1639 - None None - -
07/25/2016 16:10 Dry 109.0F - 78F - - - - - - 32 mhos 1639 - None None - -
07/25/2016 16:00 Dry 110.5F - 78F - - - - - - 32 mhos 1603 - None None - -
07/25/2016 15:55 Dry 115.0F - 78F - - - - - - 31 mhos 1527 - None None - -
07/25/2016 15:50 Dry 114.3F - 78F - - - - - - 31 mhos 1534 - None None - -
07/25/2016 15:40 Dry 113.7F - 78F - - - - - - 31 mhos 1532 - None None - -
07/25/2016 15:40 Dry 113.7F - 78F - - - - - - 31 mhos 1532 - None None - -
Date/Time
(MDT)
Sf
Temp Chem Water Layer Surface Precipitation
Sfc Pvt Sub Frz Factor Pct Dpth DpthThk IcePct Cond Salin FI Type Intens Accum Rate
07/25/2016 15:30 Dry 113.7F - 78F - - - - - - 31 mhos 1532 - None None - -
07/25/2016 15:25 Dry 116.6F - 78F - - - - - - 31 mhos 1476 - None None - -
07/25/2016 15:20 Dry 119.5F - 78F - - - - - - 30 mhos 1432 - None None - -
07/25/2016 15:10 Dry 120.4F - 78F - - - - - - 30 mhos 1424 - None None - -
07/25/2016 15:10 Dry 120.4F - 78F - - - - - - 30 mhos 1424 - None None - -
07/25/2016 15:00 Dry 118.0F - 78F - - - - - - 31 mhos 1470 - None None - -
07/25/2016 14:55 Dry 111.6F - 78F - - - - - - 31 mhos 1563 - None None - -
07/25/2016 14:50 Dry 119.5F - 78F - - - - - - 30 mhos 1432 - None None - -
07/25/2016 14:40 Dry 123.6F - 77F - - - - - - 30 mhos 1379 - None None - -
07/25/2016 14:40 Dry 123.6F - 77F - - - - - - 30 mhos 1379 - None None - -
07/25/2016 14:30 Dry 121.8F - 77F - - - - - - 30 mhos 1402 - None None - -
07/25/2016 14:25 Dry 120.9F - 77F - - - - - - 30 mhos 1418 - None None - -
07/25/2016 14:20 Dry 120.7F - 77F - - - - - - 30 mhos 1419 - None None - -
07/25/2016 14:10 Dry 119.5F - 77F - - - - - - 31 mhos 1448 - None None - -
07/25/2016 14:10 Dry 119.5F - 77F - - - - - - 31 mhos 1448 - None None - -
Date/Time
(MDT)
Sf
Temp Chem Water Layer Surface Precipitation
Sfc Pvt Sub Frz Factor Pct Dpth DpthThk IcePct Cond Salin FI Type Intens Accum Rate
07/25/2016 13:59 Dry 118.6F - 77F - - - - - - 31 mhos 1465 - None None - -
07/25/2016 13:55 Dry 118.4F - 77F - - - - - - 31 mhos 1467 - None None - -
07/25/2016 13:49 Dry 117.5F - 77F - - - - - - 31 mhos 1483 - None None - -
07/25/2016 13:40 Dry 116.8F - 77F - - - - - - 31 mhos 1500 - None None - -
07/25/2016 13:39 Dry 116.8F - 77F - - - - - - 31 mhos 1500 - None None - -
07/25/2016 13:29 Dry 114.8F - 77F - - - - - - 31 mhos 1538 - None None - -
07/25/2016 13:25 Dry 115.5F - 77F - - - - - - 31 mhos 1531 - None None - -
07/25/2016 13:19 Dry 114.8F - 77F - - - - - - 31 mhos 1538 - None None - -
07/25/2016 13:10 Dry 113.5F - 77F - - - - - - 32 mhos 1569 - None None - -
07/25/2016 13:09 Dry 113.5F - 77F - - - - - - 32 mhos 1569 - None None - -
07/25/2016 12:59 Dry 111.9F - 77F - - - - - - 32 mhos 1597 - None None - -
07/25/2016 12:55 Dry 111.9F - 77F - - - - - - 32 mhos 1606 - None None - -
07/25/2016 12:49 Dry 110.5F - 77F - - - - - - 32 mhos 1632 - None None - -
07/25/2016 12:40 Dry 110.1F - 77F - - - - - - 32 mhos 1636 - None None - -
07/25/2016 12:39 Dry 110.1F - 77F - - - - - - 33 mhos 1646 - None None - -
Date/Time
(MDT)
Sf
Temp Chem Water Layer Surface Precipitation
Sfc Pvt Sub Frz Factor Pct Dpth DpthThk IcePct Cond Salin FI Type Intens Accum Rate
07/25/2016 12:29 Dry 107.6F - 77F - - - - - - 33 mhos 1685 - None None - -
07/25/2016 12:25 Dry 107.2F - 77F - - - - - - 33 mhos 1702 - None None - -
07/25/2016 12:19 Dry 106.3F - 77F - - - - - - 33 mhos 1724 - None None - -
07/25/2016 12:10 Dry 105.1F - 77F - - - - - - 33 mhos 1751 - None None - -
07/25/2016 12:09 Dry 105.1F - 77F - - - - - - 33 mhos 1751 - None None - -
07/25/2016 11:59 Dry 104.0F - 77F - - - - - - 33 mhos 1776 - None None - -
07/25/2016 11:55 Dry 103.8F - 77F - - - - - - 34 mhos 1789 - None None - -
07/25/2016 11:49 Dry 101.7F - 77F - - - - - - 34 mhos 1830 - None None - -
07/25/2016 11:40 Dry 100.8F - 77F - - - - - - 34 mhos 1855 - None None - -
07/25/2016 11:39 Dry 100.4F - 77F - - - - - - 34 mhos 1859 - None None - -
07/25/2016 11:29 Dry 98.6F - 77F - - - - - - 34 mhos 1910 - None None - -
07/25/2016 11:25 Dry 98.1F - 77F - - - - - - 35 mhos 1929 - None None - -
07/25/2016 11:19 Dry 96.8F - 77F - - - - - - 35 mhos 1962 - None None - -
07/25/2016 11:10 Dry 95.2F - 77F - - - - - - 35 mhos 2001 - None None - -
07/25/2016 11:09 Dry 95.0F - 77F - - - - - - 35 mhos 2003 - None None - -
Date/Time
(MDT)
Sf
Temp Chem Water Layer Surface Precipitation
Sfc Pvt Sub Frz Factor Pct Dpth DpthThk IcePct Cond Salin FI Type Intens Accum Rate
07/25/2016 10:59 Dry 92.8F - 77F - - - - - - 36 mhos 2065 - None None - -
07/25/2016 10:55 Dry 92.1F - 77F - - - - - - 36 mhos 2078 - None None - -
07/25/2016 10:48 Dry 90.7F - 77F - - - - - - 36 mhos 2117 - None None - -
07/25/2016 10:40 Dry 89.6F - 77F - - - - - - 36 mhos 2152 - None None - -
07/25/2016 10:38 Dry 89.4F - 77F - - - - - - 36 mhos 2155 - None None - -
07/25/2016 10:28 Dry 87.6F - 77F - - - - - - 36 mhos 2203 - None None - -
07/25/2016 10:25 Dry 87.1F - 77F - - - - - - 36 mhos 2227 - None None - -
07/25/2016 10:18 Dry 86.0F - 77F - - - - - - 37 mhos 2263 - None None - -
07/25/2016 10:10 Dry 84.6F - 77F - - - - - - 37 mhos 2293 - None None - -
07/25/2016 10:08 Dry 84.4F - 77F - - - - - - 37 mhos 2313 - None None - -
07/25/2016 09:58 Dry 82.8F - 78F - - - - - - 37 mhos 2344 - None None - -
07/25/2016 09:55 Dry 82.4F - 78F - - - - - - 37 mhos 2371 - None None - -
07/25/2016 09:48 Dry 81.0F - 78F - - - - - - 37 mhos 2418 - None None - -
07/25/2016 09:40 Dry 79.2F - 78F - - - - - - 38 mhos 2476 - None None - -
07/25/2016 09:38 Dry 78.8F - 78F - - - - - - 38 mhos 2483 - None None - -
Date/Time
(MDT)
Sf
Temp Chem Water Layer Surface Precipitation
Sfc Pvt Sub Frz Factor Pct Dpth DpthThk IcePct Cond Salin FI Type Intens Accum Rate
07/25/2016 09:28 Dry 77.0F - 78F - - - - - - 38 mhos 2545 - None None - -
07/25/2016 09:25 Dry 76.5F - 78F - - - - - - 38 mhos 2560 - None None - -
07/25/2016 09:18 Dry 75.2F - 78F - - - - - - 38 mhos 2609 - None None - -
07/25/2016 09:10 Dry 73.4F - 78F - - - - - - 38 mhos 2672 - None None - -
07/25/2016 09:08 Dry 73.2F - 78F - - - - - - 38 mhos 2681 - None None - -
07/25/2016 08:58 Dry 70.7F - 78F - - - - - - 39 mhos 2768 - None None - -
07/25/2016 08:55 Dry 70.0F - 78F - - - - - - 39 mhos 2790 - None None - -
07/25/2016 08:48 Dry 68.5F - 78F - - - - - - 39 mhos 2851 - None None - -
07/25/2016 08:40 Dry 66.9F - 78F - - - - - - 39 mhos 2898 - None None - -
07/25/2016 08:38 Dry 66.6F - 78F - - - - - - 39 mhos 2912 - None None - -
07/25/2016 08:28 Dry 64.4F - 78F - - - - - - 39 mhos 2998 - None None - -
07/25/2016 08:25 Dry 63.9F - 78F - - - - - - 39 mhos 3018 - None None - -
07/25/2016 08:18 Dry 62.6F - 78F - - - - - - 39 mhos 3059 - None None - -
07/25/2016 08:10 Dry 61.0F - 79F - - - - - - 40 mhos 3137 - None None - -
07/25/2016 08:08 Dry 61.0F - 79F - - - - - - 40 mhos 3143 - None None - -
Date/Time
(MDT)
Sf
Temp Chem Water Layer Surface Precipitation
Sfc Pvt Sub Frz Factor Pct Dpth DpthThk IcePct Cond Salin FI Type Intens Accum Rate
07/25/2016 07:58 Dry 59.2F - 79F - - - - - - 40 mhos 3204 - None None - -
07/25/2016 07:55 Dry 58.6F - 79F - - - - - - 40 mhos 3222 - None None - -
07/25/2016 07:47 Dry 57.6F - 79F - - - - - - 40 mhos 3263 - None None - -
07/25/2016 07:40 Dry 56.5F - 79F - - - - - - 40 mhos 3332 - None None - -
07/25/2016 07:37 Dry 56.3F - 79F - - - - - - 40 mhos 3344 - None None - -
07/25/2016 07:27 Dry 55.0F - 79F - - - - - - 40 mhos 3388 - None None - -
07/25/2016 07:25 Dry 54.9F - 79F - - - - - - 40 mhos 3401 - None None - -
07/25/2016 07:17 Dry 53.8F - 79F - - - - - - 40 mhos 3440 - None None - -
07/25/2016 07:10 Dry 53.4F - 79F - - - - - - 40 mhos 3460 - None None - -
07/25/2016 07:07 Dry 53.1F - 79F - - - - - - 40 mhos 3474 - None None - -
07/25/2016 06:57 Dry 52.3F - 79F - - - - - - 40 mhos 3508 - None None - -
07/25/2016 06:55 Dry 52.2F - 79F - - - - - - 40 mhos 3515 - None None - -
07/25/2016 06:47 Dry 51.4F - 80F - - - - - - 40 mhos 3571 - None None - -
07/25/2016 06:40 Dry 51.4F - 80F - - - - - - 40 mhos 3571 - None None - -
07/25/2016 06:37 Dry 51.3F - 80F - - - - - - 40 mhos 3579 - None None - -
Date/Time
(MDT)
Sf
Temp Chem Water Layer Surface Precipitation
Sfc Pvt Sub Frz Factor Pct Dpth DpthThk IcePct Cond Salin FI Type Intens Accum Rate
07/25/2016 06:27 Dry 51.4F - 80F - - - - - - 40 mhos 3571 - None None - -
07/25/2016 06:25 Dry 51.4F - 80F - - - - - - 40 mhos 3571 - None None - -
07/25/2016 06:17 Dry 51.3F - 80F - - - - - - 40 mhos 3579 - None None - -
07/25/2016 06:10 Dry 51.6F - 80F - - - - - - 40 mhos 3564 - None None - -
07/25/2016 06:07 Dry 51.8F - 80F - - - - - - 40 mhos 3529 - None None - -
07/25/2016 05:57 Dry 52.2F - 80F - - - - - - 40 mhos 3515 - None None - -
07/25/2016 05:55 Dry 52.3F - 80F - - - - - - 40 mhos 3508 - None None - -
07/25/2016 05:47 Dry 52.7F - 80F - - - - - - 40 mhos 3487 - None None - -
07/25/2016 05:40 Dry 53.1F - 80F - - - - - - 40 mhos 3474 - None None - -
07/25/2016 05:37 Dry 53.1F - 80F - - - - - - 40 mhos 3474 - None None - -
07/25/2016 05:27 Dry 53.2F - 80F - - - - - - 40 mhos 3467 - None None - -
07/25/2016 05:25 Dry 53.4F - 80F - - - - - - 40 mhos 3460 - None None - -
07/25/2016 05:17 Dry 53.6F - 80F - - - - - - 40 mhos 3454 - None None - -
07/25/2016 05:10 Dry 54.0F - 80F - - - - - - 40 mhos 3434 - None None - -
07/25/2016 05:07 Dry 54.0F - 80F - - - - - - 40 mhos 3434 - None None - -
Date/Time
(MDT)
Sf
Temp Chem Water Layer Surface Precipitation
Sfc Pvt Sub Frz Factor Pct Dpth DpthThk IcePct Cond Salin FI Type Intens Accum Rate
07/25/2016 04:57 Dry 54.3F - 81F - - - - - - 40 mhos 3421 - None None - -
07/25/2016 04:55 Dry 54.5F - 81F - - - - - - 40 mhos 3414 - None None - -
07/25/2016 04:47 Dry 54.9F - 81F - - - - - - 40 mhos 3401 - None None - -
07/25/2016 04:40 Dry 55.0F - 81F - - - - - - 40 mhos 3388 - None None - -
07/25/2016 04:37 Dry 55.2F - 81F - - - - - - 40 mhos 3382 - None None - -
07/25/2016 04:26 Dry 55.6F - 81F - - - - - - 40 mhos 3369 - None None - -
07/25/2016 04:25 Dry 55.6F - 81F - - - - - - 40 mhos 3369 - None None - -
07/25/2016 04:16 Dry 55.9F - 81F - - - - - - 40 mhos 3357 - None None - -
07/25/2016 04:10 Dry 56.3F - 81F - - - - - - 40 mhos 3344 - None None - -
07/25/2016 04:06 Dry 56.3F - 81F - - - - - - 40 mhos 3344 - None None - -
07/25/2016 03:56 Dry 56.5F - 81F - - - - - - 40 mhos 3332 - None None - -
07/25/2016 03:55 Dry 56.5F - 81F - - - - - - 40 mhos 3332 - None None - -
07/25/2016 03:46 Dry 56.8F - 81F - - - - - - 40 mhos 3293 - None None - -
07/25/2016 03:40 Dry 57.2F - 81F - - - - - - 40 mhos 3307 - None None - -
07/25/2016 03:36 Dry 57.2F - 81F - - - - - - 40 mhos 3281 - None None - -
Date/Time
(MDT)
Sf
Temp Chem Water Layer Surface Precipitation
Sfc Pvt Sub Frz Factor Pct Dpth DpthThk IcePct Cond Salin FI Type Intens Accum Rate
07/25/2016 03:26 Dry 57.4F - 81F - - - - - - 40 mhos 3269 - None None - -
07/25/2016 03:25 Dry 57.6F - 81F - - - - - - 40 mhos 3263 - None None - -
07/25/2016 03:16 Dry 57.9F - 81F - - - - - - 40 mhos 3251 - None None - -
07/25/2016 03:10 Dry 58.1F - 82F - - - - - - 40 mhos 3245 - None None - -
07/25/2016 03:06 Dry 58.3F - 82F - - - - - - 40 mhos 3239 - None None - -
07/25/2016 02:56 Dry 58.6F - 82F - - - - - - 40 mhos 3228 - None None - -
07/25/2016 02:55 Dry 58.6F - 82F - - - - - - 40 mhos 3228 - None None - -
07/25/2016 02:46 Dry 59.0F - 82F - - - - - - 40 mhos 3210 - None None - -
07/25/2016 02:40 Dry 59.2F - 82F - - - - - - 40 mhos 3204 - None None - -
07/25/2016 02:36 Dry 59.2F - 82F - - - - - - 40 mhos 3204 - None None - -
07/25/2016 02:26 Dry 59.7F - 82F - - - - - - 40 mhos 3187 - None None - -
07/25/2016 02:25 Dry 59.7F - 82F - - - - - - 40 mhos 3187 - None None - -
07/25/2016 02:16 Dry 60.1F - 82F - - - - - - 40 mhos 3170 - None None - -
07/25/2016 02:10 Dry 60.1F - 82F - - - - - - 40 mhos 3170 - None None - -
07/25/2016 02:06 Dry 60.3F - 82F - - - - - - 40 mhos 3165 - None None - -
Date/Time
(MDT)
Sf
Temp Chem Water Layer Surface Precipitation
Sfc Pvt Sub Frz Factor Pct Dpth DpthThk IcePct Cond Salin FI Type Intens Accum Rate
07/25/2016 01:56 Dry 60.8F - 82F - - - - - - 39 mhos 3123 - None None - -
07/25/2016 01:55 Dry 60.8F - 82F - - - - - - 39 mhos 3123 - None None - -
07/25/2016 01:46 Dry 61.3F - 82F - - - - - - 39 mhos 3102 - None None - -
07/25/2016 01:40 Dry 61.5F - 82F - - - - - - 39 mhos 3096 - None None - -
07/25/2016 01:36 Dry 61.7F - 82F - - - - - - 39 mhos 3091 - None None - -
07/25/2016 01:26 Dry 62.1F - 82F - - - - - - 39 mhos 3075 - None None - -
07/25/2016 01:25 Dry 62.1F - 82F - - - - - - 39 mhos 3075 - None None - -
07/25/2016 01:15 Dry 62.6F - 82F - - - - - - 39 mhos 3059 - None None - -
07/25/2016 01:10 Dry 62.8F - 82F - - - - - - 39 mhos 3054 - None None - -
07/25/2016 01:05 Dry 63.0F - 82F - - - - - - 39 mhos 3049 - None None - -
07/25/2016 00:55 Dry 63.3F - 82F - - - - - - 39 mhos 3033 - None None - -
07/25/2016 00:55 Dry 63.3F - 82F - - - - - - 39 mhos 3033 - None None - -
07/25/2016 00:45 Dry 63.7F - 82F - - - - - - 39 mhos 3000 - None None - -
07/25/2016 00:40 Dry 63.9F - 82F - - - - - - 39 mhos 2995 - None None - -
07/25/2016 00:35 Dry 64.2F - 82F - - - - - - 39 mhos 2985 - None None - -
Date/Time
(MDT)
Sf
Temp Chem Water Layer Surface Precipitation
Sfc Pvt Sub Frz Factor Pct Dpth DpthThk IcePct Cond Salin FI Type Intens Accum Rate
07/25/2016 00:25 Dry 64.6F - 82F - - - - - - 39 mhos 2970 - None None - -
07/25/2016 00:25 Dry 64.6F - 82F - - - - - - 39 mhos 2970 - None None - -
07/25/2016 00:15 Dry 65.1F - 82F - - - - - - 39 mhos 2955 - None None - -
07/25/2016 00:10 Dry 65.5F - 82F - - - - - - 39 mhos 2945 - None None - -
07/25/2016 00:05 Dry 65.7F - 82F - - - - - - 39 mhos 2936 - None None - -
07/24/2016 23:55 Dry 66.0F - 82F - - - - - - 39 mhos 2904 - None None - -
07/24/2016 23:55 Dry 66.0F - 82F - - - - - - 39 mhos 2904 - None None - -
07/24/2016 23:45 Dry 66.6F - 82F - - - - - - 39 mhos 2889 - None None - -
07/24/2016 23:40 Dry 66.7F - 82F - - - - - - 39 mhos 2885 - None None - -
07/24/2016 23:35 Dry 66.9F - 82F - - - - - - 39 mhos 2875 - None None - -
07/24/2016 23:25 Dry 67.5F - 82F - - - - - - 39 mhos 2862 - None None - -
07/24/2016 23:25 Dry 67.5F - 82F - - - - - - 39 mhos 2862 - None None - -
07/24/2016 23:15 Dry 67.8F - 82F - - - - - - 39 mhos 2848 - None None - -
07/24/2016 23:10 Dry 68.0F - 82F - - - - - - 39 mhos 2843 - None None - -
07/24/2016 23:05 Dry 68.5F - 82F - - - - - - 38 mhos 2808 - None None - -
Date/Time
(MDT)
Sf
Temp Chem Water Layer Surface Precipitation
Sfc Pvt Sub Frz Factor Pct Dpth DpthThk IcePct Cond Salin FI Type Intens Accum Rate
07/24/2016 22:55 Dry 69.1F - 82F - - - - - - 38 mhos 2790 - None None - -
07/24/2016 22:55 Dry 69.1F - 82F - - - - - - 38 mhos 2790 - None None - -
07/24/2016 22:45 Dry 70.0F - 82F - - - - - - 38 mhos 2769 - None None - -
07/24/2016 22:40 Dry 70.2F - 82F - - - - - - 38 mhos 2743 - None None - -
07/24/2016 22:35 Dry 70.5F - 82F - - - - - - 38 mhos 2731 - None None - -
07/24/2016 22:25 Dry 71.2F - 82F - - - - - - 38 mhos 2714 - None None - -
07/24/2016 22:25 Dry 71.2F - 82F - - - - - - 38 mhos 2714 - None None - -
07/24/2016 22:14 Dry 72.0F - 82F - - - - - - 38 mhos 2693 - None None - -
07/24/2016 22:10 Dry 72.3F - 82F - - - - - - 38 mhos 2665 - None None - -
07/24/2016 22:04 Dry 72.5F - 82F - - - - - - 38 mhos 2657 - None None - -
07/24/2016 21:55 Dry 73.6F - 82F - - - - - - 38 mhos 2629 - None None - -
07/24/2016 21:54 Dry 73.6F - 82F - - - - - - 38 mhos 2629 - None None - -
07/24/2016 21:44 Dry 74.5F - 82F - - - - - - 38 mhos 2605 - None None - -
07/24/2016 21:40 Dry 75.0F - 82F - - - - - - 38 mhos 2575 - None None - -
07/24/2016 21:34 Dry 75.6F - 82F - - - - - - 38 mhos 2563 - None None - -
Date/Time
(MDT)
Sf
Temp Chem Water Layer Surface Precipitation
Sfc Pvt Sub Frz Factor Pct Dpth DpthThk IcePct Cond Salin FI Type Intens Accum Rate
07/24/2016 21:25 Dry 76.5F - 82F - - - - - - 37 mhos 2523 - None None - -
07/24/2016 21:24 Dry 76.5F - 82F - - - - - - 37 mhos 2523 - None None - -
07/24/2016 21:14 Dry 77.2F - 82F - - - - - - 37 mhos 2505 - None None - -
07/24/2016 21:10 Dry 77.7F - 82F - - - - - - 37 mhos 2472 - None None - -
07/24/2016 21:04 Dry 78.3F - 82F - - - - - - 37 mhos 2462 - None None - -
07/24/2016 20:55 Dry 79.7F - 82F - - - - - - 37 mhos 2410 - None None - -
07/24/2016 20:54 Dry 79.7F - 82F - - - - - - 37 mhos 2410 - None None - -
07/24/2016 20:44 Dry 81.5F - 81F - - - - - - 37 mhos 2357 - None None - -
07/24/2016 20:40 Dry 82.6F - 81F - - - - - - 36 mhos 2316 - None None - -
07/24/2016 20:34 Dry 83.7F - 81F - - - - - - 36 mhos 2293 - None None - -
07/24/2016 20:25 Dry 85.8F - 81F - - - - - - 36 mhos 2235 - None None - -
07/24/2016 20:24 Dry 86.0F - 81F - - - - - - 36 mhos 2217 - None None - -
07/24/2016 20:14 Dry 87.8F - 81F - - - - - - 36 mhos 2167 - None None - -
07/24/2016 20:10 Dry 88.5F - 81F - - - - - - 36 mhos 2156 - None None - -
07/24/2016 20:04 Dry 89.6F - 81F - - - - - - 36 mhos 2123 - None None - -
Date/Time
(MDT)
Sf
Temp Chem Water Layer Surface Precipitation
Sfc Pvt Sub Frz Factor Pct Dpth DpthThk IcePct Cond Salin FI Type Intens Accum Rate
07/24/2016 19:55 Dry 90.9F - 81F - - - - - - 35 mhos 2085 - None None - -
07/24/2016 19:54 Dry 91.2F - 81F - - - - - - 35 mhos 2079 - None None - -
07/24/2016 19:44 Dry 93.2F - 81F - - - - - - 35 mhos 2032 - None None - -
07/24/2016 19:40 Dry 93.7F - 81F - - - - - - 35 mhos 2009 - None None - -
07/24/2016 19:34 Dry 94.6F - 80F - - - - - - 35 mhos 1996 - None None - -
07/24/2016 19:25 Dry 95.5F - 80F - - - - - - 35 mhos 1969 - None None - -
07/24/2016 19:24 Dry 95.9F - 80F - - - - - - 35 mhos 1962 - None None - -
07/24/2016 19:14 Dry 97.7F - 80F - - - - - - 34 mhos 1911 - None None - -
07/24/2016 19:10 Dry 97.9F - 80F - - - - - - 34 mhos 1907 - None None - -
07/24/2016 19:04 Dry 99.1F - 80F - - - - - - 34 mhos 1876 - None None - -
07/24/2016 18:55 Dry 100.4F - 80F - - - - - - 34 mhos 1847 - None None - -
07/24/2016 18:53 Dry 100.8F - 80F - - - - - - 34 mhos 1843 - None None - -
07/24/2016 18:43 Dry 101.8F - 80F - - - - - - 34 mhos 1816 - None None - -
07/24/2016 18:40 Dry 102.4F - 80F - - - - - - 33 mhos 1797 - None None - -
Change End Date:

Copyright © 1998-2015 Vaisala, Inc.
All Rights Reserved
Send comments about the data to:
SCAN Web ® is a registered trademark of Vaisala, Inc.
SCAN Web Version 6.0